sensor_id;sensor_type;location;lat;lon;timestamp;temperature;humidity
73665;DHT22;61964;52.052;4.474;2023-11-19T00:01:08;14.52;85.56
73665;DHT22;61964;52.052;4.474;2023-11-19T00:03:34;14.50;85.55
73665;DHT22;61964;52.052;4.474;2023-11-19T00:06:01;14.56;85.32
73665;DHT22;61964;52.052;4.474;2023-11-19T00:08:27;14.56;85.20
73665;DHT22;61964;52.052;4.474;2023-11-19T00:11:08;14.54;85.36
73665;DHT22;61964;52.052;4.474;2023-11-19T00:13:33;14.48;85.56
73665;DHT22;61964;52.052;4.474;2023-11-19T00:15:59;14.50;85.71
73665;DHT22;61964;52.052;4.474;2023-11-19T00:18:25;14.45;85.68
73665;DHT22;61964;52.052;4.474;2023-11-19T00:20:50;14.47;85.45
73665;DHT22;61964;52.052;4.474;2023-11-19T00:23:16;14.44;85.59
73665;DHT22;61964;52.052;4.474;2023-11-19T00:25:42;14.41;85.57
73665;DHT22;61964;52.052;4.474;2023-11-19T00:28:08;14.42;85.34
73665;DHT22;61964;52.052;4.474;2023-11-19T00:30:34;14.38;85.33
73665;DHT22;61964;52.052;4.474;2023-11-19T00:32:59;14.36;85.29
73665;DHT22;61964;52.052;4.474;2023-11-19T00:35:25;14.30;85.35
73665;DHT22;61964;52.052;4.474;2023-11-19T00:37:51;14.24;85.44
73665;DHT22;61964;52.052;4.474;2023-11-19T00:40:28;14.30;85.23
73665;DHT22;61964;52.052;4.474;2023-11-19T00:42:54;14.27;85.36
73665;DHT22;61964;52.052;4.474;2023-11-19T00:45:20;14.17;85.50
73665;DHT22;61964;52.052;4.474;2023-11-19T00:47:45;14.26;85.36
73665;DHT22;61964;52.052;4.474;2023-11-19T00:50:11;14.26;85.18
73665;DHT22;61964;52.052;4.474;2023-11-19T00:52:38;14.29;85.01
73665;DHT22;61964;52.052;4.474;2023-11-19T00:55:05;14.24;85.14
73665;DHT22;61964;52.052;4.474;2023-11-19T00:57:46;14.26;85.26
73665;DHT22;61964;52.052;4.474;2023-11-19T01:00:12;14.24;84.97
73665;DHT22;61964;52.052;4.474;2023-11-19T01:02:45;14.24;85.02
73665;DHT22;61964;52.052;4.474;2023-11-19T01:05:11;14.24;84.80
73665;DHT22;61964;52.052;4.474;2023-11-19T01:07:40;14.20;84.80
73665;DHT22;61964;52.052;4.474;2023-11-19T01:10:09;14.21;84.70
73665;DHT22;61964;52.052;4.474;2023-11-19T01:12:35;14.14;84.40
73665;DHT22;61964;52.052;4.474;2023-11-19T01:15:01;14.09;84.55
73665;DHT22;61964;52.052;4.474;2023-11-19T01:17:42;14.06;84.46
73665;DHT22;61964;52.052;4.474;2023-11-19T01:20:09;14.10;84.23
73665;DHT22;61964;52.052;4.474;2023-11-19T01:22:40;13.99;84.19
73665;DHT22;61964;52.052;4.474;2023-11-19T01:25:06;13.93;84.15
73665;DHT22;61964;52.052;4.474;2023-11-19T01:27:32;13.95;84.18
73665;DHT22;61964;52.052;4.474;2023-11-19T01:30:01;13.90;84.23
73665;DHT22;61964;52.052;4.474;2023-11-19T01:32:29;13.92;84.02
73665;DHT22;61964;52.052;4.474;2023-11-19T01:34:55;13.85;84.36
73665;DHT22;61964;52.052;4.474;2023-11-19T01:37:20;13.79;84.17
73665;DHT22;61964;52.052;4.474;2023-11-19T01:39:46;13.73;84.36
73665;DHT22;61964;52.052;4.474;2023-11-19T01:42:12;13.75;84.21
73665;DHT22;61964;52.052;4.474;2023-11-19T01:44:38;13.71;84.25
73665;DHT22;61964;52.052;4.474;2023-11-19T01:47:04;13.63;84.13
73665;DHT22;61964;52.052;4.474;2023-11-19T01:49:32;13.59;84.16
73665;DHT22;61964;52.052;4.474;2023-11-19T01:51:58;13.63;84.22
73665;DHT22;61964;52.052;4.474;2023-11-19T01:54:25;13.55;84.16
73665;DHT22;61964;52.052;4.474;2023-11-19T01:56:53;13.59;83.92
73665;DHT22;61964;52.052;4.474;2023-11-19T01:59:23;13.58;84.03
73665;DHT22;61964;52.052;4.474;2023-11-19T02:01:54;13.52;83.86
73665;DHT22;61964;52.052;4.474;2023-11-19T02:04:21;13.52;83.90
73665;DHT22;61964;52.052;4.474;2023-11-19T02:06:48;13.48;83.88
73665;DHT22;61964;52.052;4.474;2023-11-19T02:09:16;13.51;83.92
73665;DHT22;61964;52.052;4.474;2023-11-19T02:11:45;13.47;83.94
73665;DHT22;61964;52.052;4.474;2023-11-19T02:14:24;13.44;84.06
73665;DHT22;61964;52.052;4.474;2023-11-19T02:16:51;13.47;83.79
73665;DHT22;61964;52.052;4.474;2023-11-19T02:19:33;13.47;84.06
73665;DHT22;61964;52.052;4.474;2023-11-19T02:21:59;13.37;84.04
73665;DHT22;61964;52.052;4.474;2023-11-19T02:24:30;13.35;84.14
73665;DHT22;61964;52.052;4.474;2023-11-19T02:27:02;13.38;84.03
73665;DHT22;61964;52.052;4.474;2023-11-19T02:29:31;13.35;84.04
73665;DHT22;61964;52.052;4.474;2023-11-19T02:31:57;13.38;83.59
73665;DHT22;61964;52.052;4.474;2023-11-19T02:34:23;13.38;83.84
73665;DHT22;61964;52.052;4.474;2023-11-19T02:36:49;13.31;84.00
73665;DHT22;61964;52.052;4.474;2023-11-19T02:39:15;13.28;84.03
73665;DHT22;61964;52.052;4.474;2023-11-19T02:41:47;13.22;84.11
73665;DHT22;61964;52.052;4.474;2023-11-19T02:44:13;13.20;83.89
73665;DHT22;61964;52.052;4.474;2023-11-19T02:46:39;13.20;83.69
73665;DHT22;61964;52.052;4.474;2023-11-19T02:49:07;13.20;83.80
73665;DHT22;61964;52.052;4.474;2023-11-19T02:51:33;13.20;83.67
73665;DHT22;61964;52.052;4.474;2023-11-19T02:54:01;13.17;83.67
73665;DHT22;61964;52.052;4.474;2023-11-19T02:56:29;13.14;83.76
73665;DHT22;61964;52.052;4.474;2023-11-19T02:59:00;13.11;83.84
73665;DHT22;61964;52.052;4.474;2023-11-19T03:01:33;13.07;83.91
73665;DHT22;61964;52.052;4.474;2023-11-19T03:04:01;13.06;83.92
73665;DHT22;61964;52.052;4.474;2023-11-19T03:06:28;13.08;83.88
73665;DHT22;61964;52.052;4.474;2023-11-19T03:08:55;13.06;83.54
73665;DHT22;61964;52.052;4.474;2023-11-19T03:11:21;13.08;83.55
73665;DHT22;61964;52.052;4.474;2023-11-19T03:13:47;12.97;83.72
73665;DHT22;61964;52.052;4.474;2023-11-19T03:16:13;13.03;83.65
73665;DHT22;61964;52.052;4.474;2023-11-19T03:18:39;13.10;83.22
73665;DHT22;61964;52.052;4.474;2023-11-19T03:21:08;13.08;83.01
73665;DHT22;61964;52.052;4.474;2023-11-19T03:23:34;13.04;83.23
73665;DHT22;61964;52.052;4.474;2023-11-19T03:26:13;13.08;82.98
73665;DHT22;61964;52.052;4.474;2023-11-19T03:28:38;13.11;83.09
73665;DHT22;61964;52.052;4.474;2023-11-19T03:31:05;13.01;83.27
73665;DHT22;61964;52.052;4.474;2023-11-19T03:33:33;12.96;83.36
73665;DHT22;61964;52.052;4.474;2023-11-19T03:35:59;12.91;83.43
73665;DHT22;61964;52.052;4.474;2023-11-19T03:38:25;12.97;83.38
73665;DHT22;61964;52.052;4.474;2023-11-19T03:40:51;12.91;83.33
73665;DHT22;61964;52.052;4.474;2023-11-19T03:43:17;12.93;83.63
73665;DHT22;61964;52.052;4.474;2023-11-19T03:45:44;12.97;83.13
73665;DHT22;61964;52.052;4.474;2023-11-19T03:48:10;12.80;83.32
73665;DHT22;61964;52.052;4.474;2023-11-19T03:50:36;12.86;83.45
73665;DHT22;61964;52.052;4.474;2023-11-19T03:53:01;12.81;83.54
73665;DHT22;61964;52.052;4.474;2023-11-19T03:55:28;12.84;83.47
73665;DHT22;61964;52.052;4.474;2023-11-19T03:57:55;12.86;83.29
73665;DHT22;61964;52.052;4.474;2023-11-19T04:00:20;12.83;83.42
73665;DHT22;61964;52.052;4.474;2023-11-19T04:02:46;12.80;83.33
73665;DHT22;61964;52.052;4.474;2023-11-19T04:05:28;12.89;83.23
73665;DHT22;61964;52.052;4.474;2023-11-19T04:07:53;12.83;83.31
73665;DHT22;61964;52.052;4.474;2023-11-19T04:10:19;12.80;83.35
73665;DHT22;61964;52.052;4.474;2023-11-19T04:12:46;12.75;83.55
73665;DHT22;61964;52.052;4.474;2023-11-19T04:15:12;12.77;83.41
73665;DHT22;61964;52.052;4.474;2023-11-19T04:17:37;12.76;83.32
73665;DHT22;61964;52.052;4.474;2023-11-19T04:20:04;12.73;83.25
73665;DHT22;61964;52.052;4.474;2023-11-19T04:22:29;12.75;82.95
73665;DHT22;61964;52.052;4.474;2023-11-19T04:24:55;12.80;82.60
73665;DHT22;61964;52.052;4.474;2023-11-19T04:27:21;12.80;82.53
73665;DHT22;61964;52.052;4.474;2023-11-19T04:29:47;12.80;82.11
73665;DHT22;61964;52.052;4.474;2023-11-19T04:32:12;12.83;82.24
73665;DHT22;61964;52.052;4.474;2023-11-19T04:34:38;12.81;81.92
73665;DHT22;61964;52.052;4.474;2023-11-19T04:37:04;12.84;81.93
73665;DHT22;61964;52.052;4.474;2023-11-19T04:39:30;12.84;81.54
73665;DHT22;61964;52.052;4.474;2023-11-19T04:41:56;12.81;81.07
73665;DHT22;61964;52.052;4.474;2023-11-19T04:44:22;12.84;81.10
73665;DHT22;61964;52.052;4.474;2023-11-19T04:49:29;12.83;81.15
73665;DHT22;61964;52.052;4.474;2023-11-19T04:51:55;12.76;80.89
73665;DHT22;61964;52.052;4.474;2023-11-19T04:54:21;12.75;81.32
73665;DHT22;61964;52.052;4.474;2023-11-19T04:56:47;12.80;81.26
73665;DHT22;61964;52.052;4.474;2023-11-19T04:59:28;12.80;81.00
73665;DHT22;61964;52.052;4.474;2023-11-19T05:01:54;12.79;80.94
73665;DHT22;61964;52.052;4.474;2023-11-19T05:04:35;12.70;81.02
73665;DHT22;61964;52.052;4.474;2023-11-19T05:07:02;12.76;80.91
73665;DHT22;61964;52.052;4.474;2023-11-19T05:09:43;12.77;80.70
73665;DHT22;61964;52.052;4.474;2023-11-19T05:12:09;12.75;81.13
73665;DHT22;61964;52.052;4.474;2023-11-19T05:14:38;12.63;80.74
73665;DHT22;61964;52.052;4.474;2023-11-19T05:17:04;12.69;81.37
73665;DHT22;61964;52.052;4.474;2023-11-19T05:19:29;12.63;81.23
73665;DHT22;61964;52.052;4.474;2023-11-19T05:21:55;12.64;81.42
73665;DHT22;61964;52.052;4.474;2023-11-19T05:24:21;12.69;81.46
73665;DHT22;61964;52.052;4.474;2023-11-19T05:26:47;12.70;81.07
73665;DHT22;61964;52.052;4.474;2023-11-19T05:29:13;12.67;81.52
73665;DHT22;61964;52.052;4.474;2023-11-19T05:31:38;12.72;81.16
73665;DHT22;61964;52.052;4.474;2023-11-19T05:34:04;12.67;81.18
73665;DHT22;61964;52.052;4.474;2023-11-19T05:36:30;12.73;81.40
73665;DHT22;61964;52.052;4.474;2023-11-19T05:38:56;12.73;81.06
73665;DHT22;61964;52.052;4.474;2023-11-19T05:41:21;12.72;81.10
73665;DHT22;61964;52.052;4.474;2023-11-19T05:43:47;12.75;81.12
73665;DHT22;61964;52.052;4.474;2023-11-19T05:46:13;12.75;80.87
73665;DHT22;61964;52.052;4.474;2023-11-19T05:48:39;12.67;81.08
73665;DHT22;61964;52.052;4.474;2023-11-19T05:51:05;12.69;81.01
73665;DHT22;61964;52.052;4.474;2023-11-19T05:53:31;12.67;80.99
73665;DHT22;61964;52.052;4.474;2023-11-19T05:55:57;12.64;80.88
73665;DHT22;61964;52.052;4.474;2023-11-19T05:58:27;12.66;80.78
73665;DHT22;61964;52.052;4.474;2023-11-19T06:00:57;12.64;80.80
73665;DHT22;61964;52.052;4.474;2023-11-19T06:03:23;12.69;80.33
73665;DHT22;61964;52.052;4.474;2023-11-19T06:05:50;12.67;80.52
73665;DHT22;61964;52.052;4.474;2023-11-19T06:08:16;12.73;80.03
73665;DHT22;61964;52.052;4.474;2023-11-19T06:10:43;12.64;80.30
73665;DHT22;61964;52.052;4.474;2023-11-19T06:13:13;12.69;80.67
73665;DHT22;61964;52.052;4.474;2023-11-19T06:15:43;12.63;80.28
73665;DHT22;61964;52.052;4.474;2023-11-19T06:18:09;12.57;80.88
73665;DHT22;61964;52.052;4.474;2023-11-19T06:20:37;12.60;80.90
73665;DHT22;61964;52.052;4.474;2023-11-19T06:23:03;12.55;81.26
73665;DHT22;61964;52.052;4.474;2023-11-19T06:25:28;12.49;81.12
73665;DHT22;61964;52.052;4.474;2023-11-19T06:27:54;12.60;81.15
73665;DHT22;61964;52.052;4.474;2023-11-19T06:30:20;12.55;81.37
73665;DHT22;61964;52.052;4.474;2023-11-19T06:32:46;12.53;81.49
73665;DHT22;61964;52.052;4.474;2023-11-19T06:35:12;12.57;81.24
73665;DHT22;61964;52.052;4.474;2023-11-19T06:37:40;12.60;81.08
73665;DHT22;61964;52.052;4.474;2023-11-19T06:40:07;12.60;81.25
73665;DHT22;61964;52.052;4.474;2023-11-19T06:42:35;12.66;80.68
73665;DHT22;61964;52.052;4.474;2023-11-19T06:45:01;12.70;80.69
73665;DHT22;61964;52.052;4.474;2023-11-19T06:47:28;12.70;81.02
73665;DHT22;61964;52.052;4.474;2023-11-19T06:49:54;12.80;80.71
73665;DHT22;61964;52.052;4.474;2023-11-19T06:52:21;12.84;80.85
73665;DHT22;61964;52.052;4.474;2023-11-19T06:54:47;12.80;80.69
73665;DHT22;61964;52.052;4.474;2023-11-19T06:57:13;12.84;80.64
73665;DHT22;61964;52.052;4.474;2023-11-19T06:59:40;12.90;80.53
73665;DHT22;61964;52.052;4.474;2023-11-19T07:02:06;12.94;80.56
73665;DHT22;61964;52.052;4.474;2023-11-19T07:04:32;12.99;80.14
73665;DHT22;61964;52.052;4.474;2023-11-19T07:07:00;13.04;79.94
73665;DHT22;61964;52.052;4.474;2023-11-19T07:09:26;13.04;80.27
73665;DHT22;61964;52.052;4.474;2023-11-19T07:11:52;13.07;80.50
73665;DHT22;61964;52.052;4.474;2023-11-19T07:14:19;13.03;80.50
73665;DHT22;61964;52.052;4.474;2023-11-19T07:16:45;13.11;80.28
73665;DHT22;61964;52.052;4.474;2023-11-19T07:19:15;13.11;80.57
73665;DHT22;61964;52.052;4.474;2023-11-19T07:21:42;13.10;80.33
73665;DHT22;61964;52.052;4.474;2023-11-19T07:24:10;13.03;80.15
73665;DHT22;61964;52.052;4.474;2023-11-19T07:26:43;13.08;80.43
73665;DHT22;61964;52.052;4.474;2023-11-19T07:29:10;13.07;80.29
73665;DHT22;61964;52.052;4.474;2023-11-19T07:31:36;13.01;80.67
73665;DHT22;61964;52.052;4.474;2023-11-19T07:34:02;12.99;80.52
73665;DHT22;61964;52.052;4.474;2023-11-19T07:36:28;12.99;80.45
73665;DHT22;61964;52.052;4.474;2023-11-19T07:38:54;13.00;80.82
73665;DHT22;61964;52.052;4.474;2023-11-19T07:41:23;12.99;80.66
73665;DHT22;61964;52.052;4.474;2023-11-19T07:43:51;13.00;80.58
73665;DHT22;61964;52.052;4.474;2023-11-19T07:46:18;13.03;80.25
73665;DHT22;61964;52.052;4.474;2023-11-19T07:48:47;13.00;80.36
73665;DHT22;61964;52.052;4.474;2023-11-19T07:51:13;13.06;79.91
73665;DHT22;61964;52.052;4.474;2023-11-19T07:53:40;13.07;80.01
73665;DHT22;61964;52.052;4.474;2023-11-19T07:56:07;13.07;79.99
73665;DHT22;61964;52.052;4.474;2023-11-19T07:58:33;13.08;79.76
73665;DHT22;61964;52.052;4.474;2023-11-19T08:01:00;13.06;79.83
73665;DHT22;61964;52.052;4.474;2023-11-19T08:03:25;13.06;79.58
73665;DHT22;61964;52.052;4.474;2023-11-19T08:05:51;13.08;79.40
73665;DHT22;61964;52.052;4.474;2023-11-19T08:08:17;13.22;79.27
73665;DHT22;61964;52.052;4.474;2023-11-19T08:10:43;13.24;78.90
73665;DHT22;61964;52.052;4.474;2023-11-19T08:13:11;13.28;79.19
73665;DHT22;61964;52.052;4.474;2023-11-19T08:15:37;13.27;79.17
73665;DHT22;61964;52.052;4.474;2023-11-19T08:18:03;13.32;79.13
73665;DHT22;61964;52.052;4.474;2023-11-19T08:20:30;13.24;79.25
73665;DHT22;61964;52.052;4.474;2023-11-19T08:22:56;13.20;79.33
73665;DHT22;61964;52.052;4.474;2023-11-19T08:25:22;13.32;79.37
73665;DHT22;61964;52.052;4.474;2023-11-19T08:27:47;13.42;79.16
73665;DHT22;61964;52.052;4.474;2023-11-19T08:30:13;13.55;78.46
73665;DHT22;61964;52.052;4.474;2023-11-19T08:32:39;13.66;78.66
73665;DHT22;61964;52.052;4.474;2023-11-19T08:35:05;13.72;78.53
73665;DHT22;61964;52.052;4.474;2023-11-19T08:37:31;13.72;78.44
73665;DHT22;61964;52.052;4.474;2023-11-19T08:39:57;13.73;78.53
73665;DHT22;61964;52.052;4.474;2023-11-19T08:42:23;13.78;78.17
73665;DHT22;61964;52.052;4.474;2023-11-19T08:44:50;13.82;78.41
73665;DHT22;61964;52.052;4.474;2023-11-19T08:47:16;13.85;78.12
73665;DHT22;61964;52.052;4.474;2023-11-19T08:49:46;13.80;77.88
73665;DHT22;61964;52.052;4.474;2023-11-19T08:52:12;13.78;77.59
73665;DHT22;61964;52.052;4.474;2023-11-19T08:54:38;13.80;77.85
73665;DHT22;61964;52.052;4.474;2023-11-19T08:57:04;14.00;76.97
73665;DHT22;61964;52.052;4.474;2023-11-19T08:59:30;14.05;77.62
73665;DHT22;61964;52.052;4.474;2023-11-19T09:01:56;14.10;77.71
73665;DHT22;61964;52.052;4.474;2023-11-19T09:04:22;14.13;77.45
73665;DHT22;61964;52.052;4.474;2023-11-19T09:06:48;14.00;77.61
73665;DHT22;61964;52.052;4.474;2023-11-19T09:09:14;14.13;77.47
73665;DHT22;61964;52.052;4.474;2023-11-19T09:11:41;14.20;77.31
73665;DHT22;61964;52.052;4.474;2023-11-19T09:14:07;14.19;77.31
73665;DHT22;61964;52.052;4.474;2023-11-19T09:16:32;14.05;77.05
73665;DHT22;61964;52.052;4.474;2023-11-19T09:18:58;14.10;77.21
73665;DHT22;61964;52.052;4.474;2023-11-19T09:21:25;14.16;77.24
73665;DHT22;61964;52.052;4.474;2023-11-19T09:23:51;14.14;76.78
73665;DHT22;61964;52.052;4.474;2023-11-19T09:26:19;14.17;77.31
73665;DHT22;61964;52.052;4.474;2023-11-19T09:28:45;14.21;77.16
73665;DHT22;61964;52.052;4.474;2023-11-19T09:31:18;14.20;76.87
73665;DHT22;61964;52.052;4.474;2023-11-19T09:33:44;14.41;76.58
73665;DHT22;61964;52.052;4.474;2023-11-19T09:36:14;14.52;76.06
73665;DHT22;61964;52.052;4.474;2023-11-19T09:38:45;14.63;76.09
73665;DHT22;61964;52.052;4.474;2023-11-19T09:41:11;14.75;75.49
73665;DHT22;61964;52.052;4.474;2023-11-19T09:43:40;14.80;75.95
73665;DHT22;61964;52.052;4.474;2023-11-19T09:46:09;14.75;74.67
73665;DHT22;61964;52.052;4.474;2023-11-19T09:48:38;14.68;75.34
73665;DHT22;61964;52.052;4.474;2023-11-19T09:51:08;14.54;75.51
73665;DHT22;61964;52.052;4.474;2023-11-19T09:53:35;14.40;74.88
73665;DHT22;61964;52.052;4.474;2023-11-19T09:56:02;14.38;74.72
73665;DHT22;61964;52.052;4.474;2023-11-19T09:58:34;14.42;75.21
73665;DHT22;61964;52.052;4.474;2023-11-19T10:01:01;14.51;75.54
73665;DHT22;61964;52.052;4.474;2023-11-19T10:03:34;14.58;74.54
73665;DHT22;61964;52.052;4.474;2023-11-19T10:06:08;14.44;74.67
73665;DHT22;61964;52.052;4.474;2023-11-19T10:08:36;14.38;74.73
73665;DHT22;61964;52.052;4.474;2023-11-19T10:11:02;14.31;74.52
73665;DHT22;61964;52.052;4.474;2023-11-19T10:13:29;14.33;74.93
73665;DHT22;61964;52.052;4.474;2023-11-19T10:15:56;14.29;74.39
73665;DHT22;61964;52.052;4.474;2023-11-19T10:18:26;14.30;74.92
73665;DHT22;61964;52.052;4.474;2023-11-19T10:20:52;14.36;74.83
73665;DHT22;61964;52.052;4.474;2023-11-19T10:23:21;14.44;75.33
73665;DHT22;61964;52.052;4.474;2023-11-19T10:25:47;14.36;74.59
73665;DHT22;61964;52.052;4.474;2023-11-19T10:28:15;14.34;74.66
73665;DHT22;61964;52.052;4.474;2023-11-19T10:30:42;14.36;75.25
73665;DHT22;61964;52.052;4.474;2023-11-19T10:33:13;14.29;75.24
73665;DHT22;61964;52.052;4.474;2023-11-19T10:35:56;14.23;74.79
73665;DHT22;61964;52.052;4.474;2023-11-19T10:38:23;14.23;74.86
73665;DHT22;61964;52.052;4.474;2023-11-19T10:40:50;14.23;75.51
73665;DHT22;61964;52.052;4.474;2023-11-19T10:43:17;14.24;74.69
73665;DHT22;61964;52.052;4.474;2023-11-19T10:45:43;14.34;73.83
73665;DHT22;61964;52.052;4.474;2023-11-19T10:48:10;14.37;74.78
73665;DHT22;61964;52.052;4.474;2023-11-19T10:50:37;14.41;74.49
73665;DHT22;61964;52.052;4.474;2023-11-19T10:53:04;14.38;74.56
73665;DHT22;61964;52.052;4.474;2023-11-19T10:55:32;14.37;74.17
73665;DHT22;61964;52.052;4.474;2023-11-19T10:58:08;14.42;74.05
73665;DHT22;61964;52.052;4.474;2023-11-19T11:00:48;14.60;73.45
73665;DHT22;61964;52.052;4.474;2023-11-19T11:03:19;14.84;73.02
73665;DHT22;61964;52.052;4.474;2023-11-19T11:05:49;15.06;72.89
73665;DHT22;61964;52.052;4.474;2023-11-19T11:08:17;15.18;71.84
73665;DHT22;61964;52.052;4.474;2023-11-19T11:10:45;15.42;72.85
73665;DHT22;61964;52.052;4.474;2023-11-19T11:13:11;15.51;72.88
73665;DHT22;61964;52.052;4.474;2023-11-19T11:15:39;15.49;71.98
73665;DHT22;61964;52.052;4.474;2023-11-19T11:18:09;15.46;72.96
73665;DHT22;61964;52.052;4.474;2023-11-19T11:20:35;15.51;73.06
73665;DHT22;61964;52.052;4.474;2023-11-19T11:23:30;15.36;73.24
73665;DHT22;61964;52.052;4.474;2023-11-19T11:29:40;15.63;72.85
73665;DHT22;61964;52.052;4.474;2023-11-19T11:32:35;15.51;72.56
73665;DHT22;61964;52.052;4.474;2023-11-19T11:36:06;15.57;73.12
73665;DHT22;61964;52.052;4.474;2023-11-19T11:38:11;15.59;71.89
73665;DHT22;61964;52.052;4.474;2023-11-19T11:40:39;15.57;73.26
73665;DHT22;61964;52.052;4.474;2023-11-19T11:49:25;15.54;72.54
73665;DHT22;61964;52.052;4.474;2023-11-19T11:51:57;15.64;72.62
73665;DHT22;61964;52.052;4.474;2023-11-19T11:54:43;15.76;72.71
73665;DHT22;61964;52.052;4.474;2023-11-19T11:57:12;15.59;71.71
73665;DHT22;61964;52.052;4.474;2023-11-19T12:00:04;15.38;72.75
73665;DHT22;61964;52.052;4.474;2023-11-19T12:02:36;15.18;72.04
73665;DHT22;61964;52.052;4.474;2023-11-19T12:05:02;15.08;72.21
73665;DHT22;61964;52.052;4.474;2023-11-19T12:07:30;15.05;72.86
73665;DHT22;61964;52.052;4.474;2023-11-19T12:10:09;14.98;72.56
73665;DHT22;61964;52.052;4.474;2023-11-19T12:12:40;15.08;71.80
73665;DHT22;61964;52.052;4.474;2023-11-19T12:15:08;15.11;71.42
73665;DHT22;61964;52.052;4.474;2023-11-19T12:17:46;14.98;73.21
73665;DHT22;61964;52.052;4.474;2023-11-19T12:20:15;14.92;72.93
73665;DHT22;61964;52.052;4.474;2023-11-19T12:22:44;15.06;73.02
73665;DHT22;61964;52.052;4.474;2023-11-19T12:25:11;15.16;72.53
73665;DHT22;61964;52.052;4.474;2023-11-19T12:27:48;15.15;73.10
73665;DHT22;61964;52.052;4.474;2023-11-19T12:30:27;15.26;72.97
73665;DHT22;61964;52.052;4.474;2023-11-19T12:32:54;15.19;72.88
73665;DHT22;61964;52.052;4.474;2023-11-19T12:35:20;15.01;73.74
73665;DHT22;61964;52.052;4.474;2023-11-19T12:37:47;14.88;73.66
73665;DHT22;61964;52.052;4.474;2023-11-19T12:40:18;14.89;74.62
73665;DHT22;61964;52.052;4.474;2023-11-19T12:42:45;14.87;74.62
73665;DHT22;61964;52.052;4.474;2023-11-19T12:45:12;14.81;75.42
73665;DHT22;61964;52.052;4.474;2023-11-19T12:47:39;14.78;75.06
73665;DHT22;61964;52.052;4.474;2023-11-19T12:50:07;14.84;74.68
73665;DHT22;61964;52.052;4.474;2023-11-19T12:52:37;14.80;74.26
73665;DHT22;61964;52.052;4.474;2023-11-19T12:55:04;14.71;74.80
73665;DHT22;61964;52.052;4.474;2023-11-19T12:57:43;14.81;75.25
73665;DHT22;61964;52.052;4.474;2023-11-19T13:00:21;14.71;74.77
73665;DHT22;61964;52.052;4.474;2023-11-19T13:02:55;14.57;75.56
73665;DHT22;61964;52.052;4.474;2023-11-19T13:05:32;14.48;75.10
73665;DHT22;61964;52.052;4.474;2023-11-19T13:08:08;14.45;75.79
73665;DHT22;61964;52.052;4.474;2023-11-19T13:10:53;14.58;74.75
73665;DHT22;61964;52.052;4.474;2023-11-19T13:13:21;14.70;74.65
73665;DHT22;61964;52.052;4.474;2023-11-19T13:15:47;14.65;74.11
73665;DHT22;61964;52.052;4.474;2023-11-19T13:18:16;14.56;74.56
73665;DHT22;61964;52.052;4.474;2023-11-19T13:20:42;14.47;75.20
73665;DHT22;61964;52.052;4.474;2023-11-19T13:23:08;14.38;75.37
73665;DHT22;61964;52.052;4.474;2023-11-19T13:25:34;14.38;75.94
73665;DHT22;61964;52.052;4.474;2023-11-19T13:28:00;14.42;76.60
73665;DHT22;61964;52.052;4.474;2023-11-19T13:30:26;14.42;77.04
73665;DHT22;61964;52.052;4.474;2023-11-19T13:32:52;14.42;77.44
73665;DHT22;61964;52.052;4.474;2023-11-19T13:35:20;14.60;77.14
73665;DHT22;61964;52.052;4.474;2023-11-19T13:37:47;14.63;76.82
73665;DHT22;61964;52.052;4.474;2023-11-19T13:40:14;14.71;76.52
73665;DHT22;61964;52.052;4.474;2023-11-19T13:42:41;14.75;77.09
73665;DHT22;61964;52.052;4.474;2023-11-19T13:45:12;14.61;77.08
73665;DHT22;61964;52.052;4.474;2023-11-19T13:47:39;14.54;76.09
73665;DHT22;61964;52.052;4.474;2023-11-19T13:50:11;14.36;76.40
73665;DHT22;61964;52.052;4.474;2023-11-19T13:52:38;14.31;76.36
73665;DHT22;61964;52.052;4.474;2023-11-19T13:55:09;14.21;76.68
73665;DHT22;61964;52.052;4.474;2023-11-19T13:57:36;14.12;76.22
73665;DHT22;61964;52.052;4.474;2023-11-19T14:00:04;14.06;76.20
73665;DHT22;61964;52.052;4.474;2023-11-19T14:02:42;14.10;76.85
73665;DHT22;61964;52.052;4.474;2023-11-19T14:05:09;14.13;76.73
73665;DHT22;61964;52.052;4.474;2023-11-19T14:07:36;14.13;76.61
73665;DHT22;61964;52.052;4.474;2023-11-19T14:10:03;14.09;76.12
73665;DHT22;61964;52.052;4.474;2023-11-19T14:12:29;14.10;76.31
73665;DHT22;61964;52.052;4.474;2023-11-19T14:14:55;14.06;76.82
73665;DHT22;61964;52.052;4.474;2023-11-19T14:17:20;14.02;75.78
73665;DHT22;61964;52.052;4.474;2023-11-19T14:19:46;14.08;77.05
73665;DHT22;61964;52.052;4.474;2023-11-19T14:22:12;14.03;77.06
73665;DHT22;61964;52.052;4.474;2023-11-19T14:24:38;14.13;76.57
73665;DHT22;61964;52.052;4.474;2023-11-19T14:27:07;14.16;76.37
73665;DHT22;61964;52.052;4.474;2023-11-19T14:29:33;14.17;76.03
73665;DHT22;61964;52.052;4.474;2023-11-19T14:32:00;14.17;75.97
73665;DHT22;61964;52.052;4.474;2023-11-19T14:34:26;14.19;75.64
73665;DHT22;61964;52.052;4.474;2023-11-19T14:36:52;14.23;75.55
73665;DHT22;61964;52.052;4.474;2023-11-19T14:39:19;14.26;75.79
73665;DHT22;61964;52.052;4.474;2023-11-19T14:41:45;14.31;74.86
73665;DHT22;61964;52.052;4.474;2023-11-19T14:44:11;14.31;74.07
73665;DHT22;61964;52.052;4.474;2023-11-19T14:46:36;14.33;75.01
73665;DHT22;61964;52.052;4.474;2023-11-19T14:49:02;14.23;75.01
73665;DHT22;61964;52.052;4.474;2023-11-19T14:51:30;14.21;74.86
73665;DHT22;61964;52.052;4.474;2023-11-19T14:53:56;14.20;74.87
73665;DHT22;61964;52.052;4.474;2023-11-19T14:56:22;14.23;75.66
73665;DHT22;61964;52.052;4.474;2023-11-19T14:58:47;14.21;75.34
73665;DHT22;61964;52.052;4.474;2023-11-19T15:01:16;14.20;75.91
73665;DHT22;61964;52.052;4.474;2023-11-19T15:03:42;14.23;75.82
73665;DHT22;61964;52.052;4.474;2023-11-19T15:06:07;14.21;76.28
73665;DHT22;61964;52.052;4.474;2023-11-19T15:08:33;14.26;76.77
73665;DHT22;61964;52.052;4.474;2023-11-19T15:10:59;14.24;76.80
73665;DHT22;61964;52.052;4.474;2023-11-19T15:13:27;14.16;76.97
73665;DHT22;61964;52.052;4.474;2023-11-19T15:15:53;14.14;77.75
73665;DHT22;61964;52.052;4.474;2023-11-19T15:18:20;14.09;77.72
73665;DHT22;61964;52.052;4.474;2023-11-19T15:20:46;14.13;77.75
73665;DHT22;61964;52.052;4.474;2023-11-19T15:23:13;14.13;78.05
73665;DHT22;61964;52.052;4.474;2023-11-19T15:25:39;13.96;78.24
73665;DHT22;61964;52.052;4.474;2023-11-19T15:28:05;14.00;78.43
73665;DHT22;61964;52.052;4.474;2023-11-19T15:30:31;13.93;78.62
73665;DHT22;61964;52.052;4.474;2023-11-19T15:32:56;13.87;78.88
73665;DHT22;61964;52.052;4.474;2023-11-19T15:35:22;13.92;78.69
73665;DHT22;61964;52.052;4.474;2023-11-19T15:37:49;13.98;78.69
73665;DHT22;61964;52.052;4.474;2023-11-19T15:40:14;13.92;78.68
73665;DHT22;61964;52.052;4.474;2023-11-19T15:42:41;13.87;78.73
73665;DHT22;61964;52.052;4.474;2023-11-19T15:45:11;13.82;78.89
73665;DHT22;61964;52.052;4.474;2023-11-19T15:47:38;13.80;79.59